createdAt,value
2023-01-29T00:03:13.019Z,86.30
2023-01-29T00:07:45.777Z,86.98
2023-01-29T00:12:18.041Z,86.98
2023-01-29T00:16:56.673Z,87.56
2023-01-29T00:21:24.666Z,87.56
2023-01-29T00:25:55.714Z,87.63
2023-01-29T00:30:31.248Z,87.57
2023-01-29T00:35:04.236Z,87.50
2023-01-29T00:39:47.402Z,87.42
2023-01-29T00:44:19.043Z,87.54
2023-01-29T00:48:51.479Z,87.78
2023-01-29T00:53:37.450Z,88.10
2023-01-29T00:58:09.597Z,88.50
2023-01-29T01:02:40.834Z,88.80
2023-01-29T01:11:44.904Z,89.75
2023-01-29T01:16:17.863Z,90.03
2023-01-29T01:25:37.683Z,90.67
2023-01-29T01:30:10.280Z,90.56
2023-01-29T01:34:42.788Z,90.97
2023-01-29T01:39:15.427Z,91.16
2023-01-29T01:43:54.367Z,91.74
2023-01-29T01:49:05.970Z,91.53
2023-01-29T01:53:37.900Z,91.29
2023-01-29T01:58:08.481Z,91.18
2023-01-29T02:02:39.287Z,91.51
2023-01-29T02:07:01.333Z,91.64
2023-01-29T02:11:34.041Z,91.74
2023-01-29T02:15:50.089Z,91.79
2023-01-29T02:20:23.180Z,91.88
2023-01-29T02:24:58.861Z,91.96
2023-01-29T02:29:27.677Z,92.13
2023-01-29T02:34:10.965Z,92.62
2023-01-29T02:38:43.669Z,92.92
2023-01-29T02:43:16.151Z,93.08
2023-01-29T02:48:00.641Z,93.24
2023-01-29T02:52:33.116Z,93.17
2023-01-29T02:57:08.664Z,93.14
2023-01-29T03:01:34.620Z,93.47
2023-01-29T03:06:07.414Z,93.56
2023-01-29T03:10:34.533Z,93.83
2023-01-29T03:15:05.253Z,93.88
2023-01-29T03:19:39.534Z,93.66
2023-01-29T03:24:10.738Z,93.95
2023-01-29T03:28:44.594Z,94.17
2023-01-29T03:33:09.714Z,94.16
2023-01-29T03:37:40.646Z,93.98
2023-01-29T03:42:32.275Z,93.84
2023-01-29T03:47:07.557Z,93.44
2023-01-29T03:51:40.211Z,93.48
2023-01-29T03:56:18.500Z,93.26
2023-01-29T04:00:53.399Z,93.26
2023-01-29T04:05:26.173Z,93.96
2023-01-29T04:10:15.618Z,94.25
2023-01-29T04:14:48.702Z,93.94
2023-01-29T04:19:21.461Z,93.80
2023-01-29T04:24:08.416Z,93.79
2023-01-29T04:28:42.678Z,93.76
2023-01-29T04:33:13.925Z,93.92
2023-01-29T04:37:55.016Z,94.19
2023-01-29T04:42:25.291Z,94.09
2023-01-29T04:47:09.942Z,94.18
2023-01-29T04:51:59.450Z,94.63
2023-01-29T04:56:47.036Z,94.60
2023-01-29T05:01:19.292Z,94.52
2023-01-29T05:05:51.553Z,94.61
2023-01-29T05:10:23.851Z,94.70
2023-01-29T05:14:56.873Z,94.91
2023-01-29T05:19:29.664Z,94.99
2023-01-29T05:24:18.327Z,95.24
2023-01-29T05:28:51.115Z,95.56
2023-01-29T05:33:23.442Z,95.83
2023-01-29T05:37:55.747Z,96.01
2023-01-29T05:42:28.425Z,95.96
2023-01-29T05:47:00.272Z,95.95
2023-01-29T05:51:32.580Z,96.05
2023-01-29T05:55:59.274Z,95.98
2023-01-29T06:00:31.402Z,95.99
2023-01-29T06:05:03.935Z,95.84
2023-01-29T06:09:36.400Z,95.72
2023-01-29T06:14:09.192Z,95.96
2023-01-29T06:18:41.402Z,96.00
2023-01-29T06:23:14.054Z,95.90
2023-01-29T06:27:46.038Z,95.76
2023-01-29T06:32:19.619Z,95.57
2023-01-29T06:36:52.457Z,95.74
2023-01-29T06:41:24.954Z,95.74
2023-01-29T06:45:57.815Z,95.76
2023-01-29T06:50:30.790Z,95.69
2023-01-29T06:55:03.916Z,95.44
2023-01-29T06:59:39.388Z,95.40
2023-01-29T07:04:12.044Z,95.89
2023-01-29T07:09:03.459Z,95.73
2023-01-29T07:13:35.994Z,95.53
2023-01-29T07:18:00.187Z,95.53
2023-01-29T07:22:32.839Z,95.59
2023-01-29T07:26:59.683Z,95.74
2023-01-29T07:31:32.704Z,95.74
2023-01-29T07:36:05.952Z,95.90
2023-01-29T07:40:38.260Z,95.90
2023-01-29T07:45:10.917Z,95.97
2023-01-29T07:49:21.349Z,96.04
2023-01-29T07:53:57.352Z,95.95
2023-01-29T07:58:29.627Z,96.41
2023-01-29T08:08:00.858Z,96.04
2023-01-29T08:12:33.398Z,95.92
2023-01-29T08:17:01.100Z,95.77
2023-01-29T08:21:47.903Z,95.87
2023-01-29T08:26:15.628Z,95.63
2023-01-29T08:30:43.439Z,95.80
2023-01-29T08:35:15.894Z,95.75
2023-01-29T08:39:48.951Z,95.62
2023-01-29T08:44:21.454Z,95.87
2023-01-29T08:48:54.097Z,96.28
2023-01-29T08:53:19.290Z,96.21
2023-01-29T08:57:51.953Z,96.10
2023-01-29T09:02:25.005Z,96.14
2023-01-29T09:06:49.243Z,95.37
2023-01-29T09:16:08.688Z,95.69
2023-01-29T09:20:40.952Z,95.52
2023-01-29T09:25:14.637Z,95.32
2023-01-29T09:29:47.714Z,95.58
2023-01-29T09:34:20.057Z,95.30
2023-01-29T09:39:07.097Z,95.47
2023-01-29T09:43:48.242Z,95.52
2023-01-29T09:48:39.682Z,95.93
2023-01-29T09:53:06.460Z,96.36
2023-01-29T09:57:38.813Z,96.53
2023-01-29T10:02:13.732Z,96.53
2023-01-29T10:06:45.516Z,96.54
2023-01-29T10:11:23.893Z,96.30
2023-01-29T10:16:00.534Z,96.49
2023-01-29T10:20:29.796Z,96.47
2023-01-29T10:25:03.389Z,96.73
2023-01-29T10:29:38.937Z,97.09
2023-01-29T10:34:11.037Z,96.85
2023-01-29T10:38:43.500Z,97.17
2023-01-29T10:43:16.137Z,97.32
2023-01-29T10:47:50.486Z,97.27
2023-01-29T10:52:15.155Z,97.21
2023-01-29T10:56:52.004Z,97.29
2023-01-29T11:01:23.004Z,97.42
2023-01-29T11:05:53.081Z,97.35
2023-01-29T11:10:30.101Z,97.24
2023-01-29T11:15:19.541Z,97.00
2023-01-29T11:19:54.520Z,97.05
2023-01-29T11:24:27.142Z,97.17
2023-01-29T11:28:59.631Z,97.29
2023-01-29T11:33:35.451Z,97.43
2023-01-29T11:38:11.505Z,97.49
2023-01-29T11:42:46.710Z,97.55
2023-01-29T11:47:33.083Z,97.43
2023-01-29T11:52:25.713Z,97.17
2023-01-29T11:56:57.968Z,97.36
2023-01-29T12:01:31.214Z,97.18
2023-01-29T12:06:04.317Z,97.66
2023-01-29T12:10:49.423Z,97.86
2023-01-29T12:15:34.890Z,97.73
2023-01-29T12:20:19.462Z,98.17
2023-01-29T12:24:50.338Z,98.16
2023-01-29T12:29:20.033Z,97.40
2023-01-29T12:33:55.728Z,97.33
2023-01-29T12:38:40.349Z,97.05
2023-01-29T12:43:13.238Z,96.86
2023-01-29T12:47:40.967Z,96.85
2023-01-29T12:52:13.487Z,96.69
2023-01-29T13:01:37.790Z,96.82
2023-01-29T13:06:22.164Z,96.93
2023-01-29T13:11:08.886Z,97.09
2023-01-29T13:15:52.680Z,97.10
2023-01-29T13:20:25.418Z,97.37
2023-01-29T13:25:04.985Z,97.30
2023-01-29T13:29:38.251Z,97.23
2023-01-29T13:34:10.811Z,97.19
2023-01-29T13:38:50.488Z,97.27
2023-01-29T13:43:32.101Z,97.12
2023-01-29T13:48:07.347Z,97.49
2023-01-29T13:52:40.323Z,97.35
2023-01-29T13:57:14.625Z,97.57
2023-01-29T14:01:49.454Z,97.47
2023-01-29T14:06:40.102Z,97.41
2023-01-29T14:11:18.427Z,97.32
2023-01-29T14:15:59.829Z,97.76
2023-01-29T14:20:58.021Z,97.85
2023-01-29T14:25:30.844Z,96.94
2023-01-29T14:30:06.165Z,96.96
2023-01-29T14:35:06.476Z,96.63
2023-01-29T14:39:38.185Z,96.50
2023-01-29T14:44:10.877Z,96.19
2023-01-29T14:49:00.432Z,95.64
2023-01-29T14:53:44.521Z,95.19
2023-01-29T14:58:17.211Z,94.56
2023-01-29T15:03:03.587Z,94.89
2023-01-29T15:07:51.353Z,94.72
2023-01-29T15:12:38.683Z,94.71
2023-01-29T15:17:23.357Z,95.33
2023-01-29T15:22:05.089Z,95.62
2023-01-29T15:26:37.537Z,95.51
2023-01-29T15:31:10.680Z,95.77
2023-01-29T15:35:42.810Z,95.79
2023-01-29T15:40:18.546Z,95.54
2023-01-29T15:44:53.903Z,95.49
2023-01-29T15:49:26.228Z,95.06
2023-01-29T15:53:51.916Z,95.32
2023-01-29T15:58:27.431Z,94.77
2023-01-29T16:03:00.054Z,94.88
2023-01-29T16:07:34.224Z,94.85
2023-01-29T16:12:03.162Z,95.14
2023-01-29T16:16:42.143Z,94.90
2023-01-29T16:21:14.821Z,94.81
2023-01-29T16:25:48.228Z,94.98
2023-01-29T16:30:20.978Z,94.61
2023-01-29T16:34:51.792Z,94.97
2023-01-29T16:39:24.154Z,95.05
2023-01-29T16:43:59.821Z,95.09
2023-01-29T16:48:46.081Z,95.05
2023-01-29T16:53:19.404Z,95.36
2023-01-29T16:57:52.086Z,95.36
2023-01-29T17:02:27.307Z,95.53
2023-01-29T17:07:00.346Z,96.08
2023-01-29T17:11:33.073Z,95.80
2023-01-29T17:16:23.502Z,96.31
2023-01-29T17:20:55.686Z,96.53
2023-01-29T17:25:28.067Z,96.41
2023-01-29T17:30:03.445Z,95.98
2023-01-29T17:34:35.908Z,96.00
2023-01-29T17:39:09.236Z,96.21
2023-01-29T17:43:41.479Z,96.20
2023-01-29T17:48:28.277Z,96.17
2023-01-29T17:53:01.209Z,95.81
2023-01-29T17:57:33.747Z,95.62
2023-01-29T18:02:07.660Z,95.56
2023-01-29T18:06:40.896Z,95.31
2023-01-29T18:11:19.499Z,94.97
2023-01-29T18:15:52.442Z,95.09
2023-01-29T18:20:19.436Z,94.91
2023-01-29T18:24:52.782Z,94.72
2023-01-29T18:29:25.610Z,94.93
2023-01-29T18:34:17.321Z,94.43
2023-01-29T18:38:49.543Z,94.10
2023-01-29T18:43:22.128Z,94.02
2023-01-29T18:47:55.491Z,93.79
2023-01-29T18:52:27.728Z,93.84
2023-01-29T18:57:13.295Z,93.96
2023-01-29T19:01:56.180Z,93.81
2023-01-29T19:06:29.403Z,93.67
2023-01-29T19:11:01.974Z,93.54
2023-01-29T19:15:27.760Z,93.24
2023-01-29T19:20:19.733Z,92.63
2023-01-29T19:24:51.562Z,92.33
2023-01-29T19:29:23.844Z,92.43
2023-01-29T19:33:50.150Z,92.15
2023-01-29T19:38:30.947Z,92.05
2023-01-29T19:43:03.903Z,91.77
2023-01-29T19:47:36.403Z,91.78
2023-01-29T19:52:09.022Z,91.72
2023-01-29T19:56:41.888Z,91.37
2023-01-29T20:01:14.489Z,91.49
2023-01-29T20:05:47.463Z,91.29
2023-01-29T20:10:20.838Z,91.40
2023-01-29T20:14:54.538Z,91.73
2023-01-29T20:19:27.678Z,91.65
2023-01-29T20:24:00.946Z,91.64
2023-01-29T20:28:33.681Z,91.68
2023-01-29T20:32:55.039Z,91.24
2023-01-29T20:37:28.070Z,91.53
2023-01-29T20:42:13.284Z,91.45
2023-01-29T20:46:41.124Z,91.25
2023-01-29T20:51:13.933Z,91.33
2023-01-29T20:55:46.591Z,91.22
2023-01-29T21:00:38.394Z,91.05
2023-01-29T21:05:10.785Z,91.33
2023-01-29T21:09:43.627Z,91.14
2023-01-29T21:14:23.472Z,91.28
2023-01-29T21:18:40.978Z,90.57
2023-01-29T21:23:13.505Z,90.37
2023-01-29T21:27:46.378Z,90.53
2023-01-29T21:32:19.284Z,90.23
2023-01-29T21:36:51.686Z,90.15
2023-01-29T21:41:24.570Z,90.14
2023-01-29T21:45:57.667Z,90.44
2023-01-29T21:50:47.152Z,90.14
2023-01-29T21:55:12.280Z,89.95
2023-01-29T21:59:48.435Z,89.93
2023-01-29T22:04:26.688Z,89.74
2023-01-29T22:08:55.435Z,89.63
2023-01-29T22:13:23.012Z,89.15
2023-01-29T22:17:54.275Z,89.05
2023-01-29T22:22:26.944Z,89.08
2023-01-29T22:27:05.316Z,88.87
2023-01-29T22:31:44.394Z,88.83
2023-01-29T22:36:16.817Z,88.92
2023-01-29T22:40:49.760Z,89.17
2023-01-29T22:45:22.225Z,89.40
2023-01-29T22:50:08.256Z,89.37
2023-01-29T22:54:55.421Z,88.88
2023-01-29T22:59:31.006Z,88.94
2023-01-29T23:04:21.613Z,89.10
2023-01-29T23:08:54.096Z,88.76
2023-01-29T23:13:27.463Z,88.79
2023-01-29T23:17:49.783Z,88.58
2023-01-29T23:22:22.019Z,88.60
2023-01-29T23:26:56.105Z,88.59
2023-01-29T23:31:28.862Z,88.57
2023-01-29T23:36:01.921Z,88.60
2023-01-29T23:40:34.447Z,88.79
2023-01-29T23:44:59.593Z,88.61
2023-01-29T23:49:32.457Z,88.52
2023-01-29T23:54:05.267Z,88.55
2023-01-29T23:58:37.472Z,88.34
